createdAt,value
2023-03-07T00:01:00.951Z,100.00
2023-03-07T00:03:30.780Z,100.00
2023-03-07T00:06:03.978Z,100.00
2023-03-07T00:08:33.365Z,100.00
2023-03-07T00:11:02.867Z,100.00
2023-03-07T00:13:32.262Z,100.00
2023-03-07T00:16:08.334Z,100.00
2023-03-07T00:18:38.304Z,100.00
2023-03-07T00:21:08.639Z,100.00
2023-03-07T00:23:38.964Z,100.00
2023-03-07T00:26:10.157Z,100.00
2023-03-07T00:28:39.545Z,100.00
2023-03-07T00:31:12.157Z,100.00
2023-03-07T00:33:41.848Z,100.00
2023-03-07T00:36:14.097Z,100.00
2023-03-07T00:38:43.757Z,100.00
2023-03-07T00:41:14.252Z,100.00
2023-03-07T00:43:42.516Z,100.00
2023-03-07T00:46:12.446Z,100.00
2023-03-07T00:48:41.611Z,100.00
2023-03-07T00:51:12.034Z,100.00
2023-03-07T00:53:40.927Z,100.00
2023-03-07T00:56:15.070Z,100.00
2023-03-07T00:58:47.771Z,100.00
2023-03-07T01:01:19.430Z,100.00
2023-03-07T01:03:49.547Z,100.00
2023-03-07T01:06:20.218Z,100.00
2023-03-07T01:08:49.212Z,100.00
2023-03-07T01:11:17.745Z,100.00
2023-03-07T01:13:46.517Z,100.00
2023-03-07T01:16:19.804Z,100.00
2023-03-07T01:19:00.003Z,100.00
2023-03-07T01:21:44.981Z,100.00
2023-03-07T01:24:15.463Z,100.00
2023-03-07T01:26:45.757Z,100.00
2023-03-07T01:29:14.049Z,100.00
2023-03-07T01:31:43.855Z,100.00
2023-03-07T01:34:13.371Z,100.00
2023-03-07T01:36:45.474Z,100.00
2023-03-07T01:39:17.148Z,100.00
2023-03-07T01:42:09.425Z,100.00
2023-03-07T01:45:00.393Z,100.00
2023-03-07T01:47:36.488Z,100.00
2023-03-07T01:50:10.443Z,100.00
2023-03-07T01:52:41.236Z,100.00
2023-03-07T01:55:18.739Z,100.00
2023-03-07T01:57:52.196Z,100.00
2023-03-07T02:00:28.722Z,100.00
2023-03-07T02:03:07.976Z,100.00
2023-03-07T02:05:41.904Z,100.00
2023-03-07T02:08:13.470Z,100.00
2023-03-07T02:10:42.593Z,100.00
2023-03-07T02:13:12.307Z,100.00
2023-03-07T02:15:41.708Z,100.00
2023-03-07T02:18:17.272Z,100.00
2023-03-07T02:20:54.087Z,100.00
2023-03-07T02:23:30.899Z,100.00
2023-03-07T02:26:05.708Z,100.00
2023-03-07T02:28:37.603Z,100.00
2023-03-07T02:31:08.267Z,100.00
2023-03-07T02:33:38.550Z,100.00
2023-03-07T02:36:14.169Z,100.00
2023-03-07T02:38:51.569Z,100.00
2023-03-07T02:41:26.146Z,100.00
2023-03-07T02:43:57.949Z,100.00
2023-03-07T02:46:26.417Z,100.00
2023-03-07T02:49:03.911Z,100.00
2023-03-07T02:51:32.958Z,100.00
2023-03-07T02:54:01.622Z,100.00
2023-03-07T02:56:31.275Z,100.00
2023-03-07T02:59:01.597Z,100.00
2023-03-07T03:01:29.987Z,100.00
2023-03-07T03:03:58.544Z,100.00
2023-03-07T03:06:28.155Z,100.00
2023-03-07T03:08:57.421Z,100.00
2023-03-07T03:11:26.960Z,100.00
2023-03-07T03:13:55.467Z,100.00
2023-03-07T03:16:25.602Z,100.00
2023-03-07T03:19:09.593Z,100.00
2023-03-07T03:21:38.608Z,100.00
2023-03-07T03:24:07.361Z,100.00
2023-03-07T03:26:37.046Z,100.00
2023-03-07T03:29:06.466Z,100.00
2023-03-07T03:31:36.642Z,100.00
2023-03-07T03:34:06.477Z,100.00
2023-03-07T03:36:35.405Z,100.00
2023-03-07T03:39:11.019Z,100.00
2023-03-07T03:41:45.209Z,100.00
2023-03-07T03:44:13.973Z,100.00
2023-03-07T03:46:43.705Z,100.00
2023-03-07T03:49:16.779Z,100.00
2023-03-07T03:51:48.481Z,100.00
2023-03-07T03:54:17.132Z,100.00
2023-03-07T03:56:45.582Z,100.00
2023-03-07T03:59:13.861Z,100.00
2023-03-07T04:01:43.821Z,100.00
2023-03-07T04:04:12.706Z,100.00
2023-03-07T04:06:42.574Z,100.00
2023-03-07T04:09:11.300Z,100.00
2023-03-07T04:11:43.138Z,100.00
2023-03-07T04:14:11.397Z,100.00
2023-03-07T04:16:41.212Z,100.00
2023-03-07T04:19:13.349Z,100.00
2023-03-07T04:21:44.123Z,100.00
2023-03-07T04:24:13.308Z,100.00
2023-03-07T04:26:41.760Z,100.00
2023-03-07T04:29:14.741Z,100.00
2023-03-07T04:31:52.458Z,100.00
2023-03-07T04:34:22.145Z,100.00
2023-03-07T04:37:03.530Z,100.00
2023-03-07T04:39:31.813Z,100.00
2023-03-07T04:41:59.973Z,100.00
2023-03-07T04:44:36.343Z,100.00
2023-03-07T04:47:05.266Z,100.00
2023-03-07T04:49:38.394Z,100.00
2023-03-07T04:52:10.536Z,100.00
2023-03-07T04:54:41.024Z,100.00
2023-03-07T04:57:15.610Z,100.00
2023-03-07T04:59:44.605Z,100.00
2023-03-07T05:02:14.730Z,100.00
2023-03-07T05:04:47.205Z,100.00
2023-03-07T05:07:15.924Z,100.00
2023-03-07T05:09:44.597Z,100.00
2023-03-07T05:12:13.192Z,100.00
2023-03-07T05:14:43.062Z,100.00
2023-03-07T05:17:12.923Z,100.00
2023-03-07T05:19:45.850Z,100.00
2023-03-07T05:22:14.340Z,100.00
2023-03-07T05:24:44.807Z,100.00
2023-03-07T05:27:13.686Z,100.00
2023-03-07T05:29:42.176Z,100.00
2023-03-07T05:32:10.929Z,100.00
2023-03-07T05:34:40.198Z,100.00
2023-03-07T05:37:10.511Z,100.00
2023-03-07T05:39:38.720Z,100.00
2023-03-07T05:42:07.644Z,100.00
2023-03-07T05:44:37.577Z,100.00
2023-03-07T05:47:09.409Z,100.00
2023-03-07T05:49:37.781Z,100.00
2023-03-07T05:52:07.893Z,100.00
2023-03-07T05:54:37.791Z,100.00
2023-03-07T05:57:07.963Z,100.00
2023-03-07T05:59:37.415Z,100.00
2023-03-07T06:02:08.090Z,100.00
2023-03-07T06:04:37.389Z,100.00
2023-03-07T06:07:09.133Z,100.00
2023-03-07T06:09:39.660Z,100.00
2023-03-07T06:12:10.674Z,100.00
2023-03-07T06:14:40.068Z,100.00
2023-03-07T06:17:09.841Z,100.00
2023-03-07T06:19:38.270Z,100.00
2023-03-07T06:22:07.612Z,100.00
2023-03-07T06:24:36.460Z,100.00
2023-03-07T06:27:08.122Z,100.00
2023-03-07T06:29:37.794Z,100.00
2023-03-07T06:32:07.410Z,100.00
2023-03-07T06:34:38.597Z,100.00
2023-03-07T06:37:07.484Z,100.00
2023-03-07T06:39:37.003Z,100.00
2023-03-07T06:42:09.997Z,100.00
2023-03-07T06:44:39.415Z,100.00
2023-03-07T06:47:32.050Z,100.00
2023-03-07T06:50:02.252Z,100.00
2023-03-07T06:52:51.881Z,100.00
2023-03-07T06:55:20.456Z,100.00
2023-03-07T06:57:50.574Z,100.00
2023-03-07T07:00:20.081Z,100.00
2023-03-07T07:02:55.142Z,100.00
2023-03-07T07:05:41.458Z,100.00
2023-03-07T07:08:10.318Z,100.00
2023-03-07T07:10:39.468Z,100.00
2023-03-07T07:13:12.638Z,100.00
2023-03-07T07:15:41.502Z,100.00
2023-03-07T07:18:14.861Z,100.00
2023-03-07T07:20:44.510Z,100.00
2023-03-07T07:23:13.257Z,100.00
2023-03-07T07:25:41.381Z,100.00
2023-03-07T07:28:11.028Z,100.00
2023-03-07T07:30:43.479Z,100.00
2023-03-07T07:33:21.904Z,100.00
2023-03-07T07:35:55.607Z,100.00
2023-03-07T07:38:24.296Z,100.00
2023-03-07T07:40:52.757Z,100.00
2023-03-07T07:43:22.653Z,100.00
2023-03-07T07:46:00.614Z,100.00
2023-03-07T07:48:29.512Z,100.00
2023-03-07T07:51:01.694Z,100.00
2023-03-07T07:53:30.860Z,100.00
2023-03-07T07:55:59.874Z,100.00
2023-03-07T07:58:29.431Z,100.00
2023-03-07T08:01:12.687Z,100.00
2023-03-07T08:03:40.920Z,100.00
2023-03-07T08:06:09.307Z,100.00
2023-03-07T08:08:39.195Z,100.00
2023-03-07T08:11:08.747Z,100.00
2023-03-07T08:13:38.488Z,100.00
2023-03-07T08:16:10.310Z,100.00
2023-03-07T08:18:39.364Z,100.00
2023-03-07T08:21:08.676Z,100.00
2023-03-07T08:23:37.202Z,100.00
2023-03-07T08:26:06.697Z,100.00
2023-03-07T08:28:34.799Z,100.00
2023-03-07T08:31:09.907Z,100.00
2023-03-07T08:33:38.221Z,100.00
2023-03-07T08:36:07.696Z,100.00
2023-03-07T08:38:37.147Z,100.00
2023-03-07T08:41:08.311Z,100.00
2023-03-07T08:43:40.110Z,100.00
2023-03-07T08:46:09.691Z,100.00
2023-03-07T08:48:38.269Z,100.00
2023-03-07T08:51:08.087Z,100.00
2023-03-07T08:53:36.308Z,100.00
2023-03-07T08:56:07.501Z,100.00
2023-03-07T08:58:36.481Z,100.00
2023-03-07T09:01:06.850Z,100.00
2023-03-07T09:03:36.871Z,100.00
2023-03-07T09:06:06.358Z,100.00
2023-03-07T09:08:34.892Z,100.00
2023-03-07T09:11:05.463Z,100.00
2023-03-07T09:13:43.120Z,100.00
2023-03-07T09:16:18.513Z,100.00
2023-03-07T09:19:01.993Z,100.00
2023-03-07T09:21:31.408Z,100.00
2023-03-07T09:24:09.233Z,100.00
2023-03-07T09:26:40.872Z,100.00
2023-03-07T09:29:09.363Z,100.00
2023-03-07T09:31:37.631Z,100.00
2023-03-07T09:34:07.132Z,100.00
2023-03-07T09:36:36.468Z,100.00
2023-03-07T09:39:06.510Z,100.00
2023-03-07T09:41:53.708Z,100.00
2023-03-07T09:44:33.384Z,100.00
2023-03-07T09:48:11.169Z,100.00
2023-03-07T09:51:03.513Z,100.00
2023-03-07T09:53:56.589Z,100.00
2023-03-07T09:56:30.482Z,100.00
2023-03-07T09:59:13.692Z,100.00
2023-03-07T10:01:52.596Z,100.00
2023-03-07T10:04:29.074Z,100.00
2023-03-07T10:07:04.033Z,100.00
2023-03-07T10:09:32.722Z,100.00
2023-03-07T10:12:18.229Z,100.00
2023-03-07T10:15:05.928Z,100.00
2023-03-07T10:18:05.116Z,96.09
2023-03-07T10:20:40.266Z,93.80
2023-03-07T10:23:26.245Z,92.97
2023-03-07T10:26:02.069Z,91.39
2023-03-07T10:28:33.675Z,87.22
2023-03-07T10:31:19.253Z,86.58
2023-03-07T10:33:49.436Z,83.59
2023-03-07T10:36:23.932Z,82.28
2023-03-07T10:39:10.650Z,78.40
2023-03-07T10:41:54.552Z,74.17
2023-03-07T10:45:04.416Z,76.05
2023-03-07T10:48:30.910Z,74.61
2023-03-07T10:51:40.024Z,76.73
2023-03-07T10:54:51.463Z,76.57
2023-03-07T10:57:38.491Z,74.84
2023-03-07T11:00:23.456Z,74.97
2023-03-07T11:03:14.558Z,72.95
2023-03-07T11:06:00.264Z,68.45
2023-03-07T11:09:15.815Z,63.66
2023-03-07T11:11:58.587Z,64.95
2023-03-07T11:14:28.329Z,65.32
2023-03-07T11:16:57.932Z,65.31
2023-03-07T11:19:42.254Z,65.79
2023-03-07T11:22:27.070Z,64.85
2023-03-07T11:25:14.185Z,66.60
2023-03-07T11:27:50.938Z,64.68
2023-03-07T11:30:22.620Z,65.40
2023-03-07T11:33:00.157Z,65.29
2023-03-07T11:35:44.250Z,63.76
2023-03-07T11:38:20.459Z,64.13
2023-03-07T11:40:57.676Z,65.43
2023-03-07T11:43:42.466Z,64.78
2023-03-07T11:46:22.199Z,64.60
2023-03-07T11:49:08.707Z,66.10
2023-03-07T11:51:49.925Z,65.42
2023-03-07T11:54:27.978Z,64.24
2023-03-07T11:57:03.508Z,65.49
2023-03-07T12:00:02.014Z,65.12
2023-03-07T12:02:56.995Z,64.10
2023-03-07T12:05:38.188Z,67.91
2023-03-07T12:08:30.225Z,67.11
2023-03-07T12:11:09.054Z,65.48
2023-03-07T12:13:45.960Z,65.62
2023-03-07T12:16:27.047Z,67.28
2023-03-07T12:19:14.359Z,64.88
2023-03-07T12:22:08.903Z,64.93
2023-03-07T12:24:41.480Z,65.96
2023-03-07T12:27:16.325Z,65.68
2023-03-07T12:29:52.469Z,66.08
2023-03-07T12:32:28.519Z,66.85
2023-03-07T12:35:01.752Z,68.57
2023-03-07T12:37:39.124Z,66.98
2023-03-07T12:40:15.221Z,68.89
2023-03-07T12:42:49.118Z,70.60
2023-03-07T12:45:37.246Z,72.11
2023-03-07T12:48:12.543Z,72.95
2023-03-07T12:50:53.573Z,72.72
2023-03-07T12:53:36.478Z,74.06
2023-03-07T12:56:15.292Z,75.04
2023-03-07T12:58:50.618Z,76.27
2023-03-07T13:01:39.185Z,75.18
2023-03-07T13:04:17.357Z,75.70
2023-03-07T13:06:46.776Z,78.65
2023-03-07T13:09:21.047Z,77.99
2023-03-07T13:12:20.340Z,77.61
2023-03-07T13:14:51.782Z,76.50
2023-03-07T13:17:56.280Z,76.63
2023-03-07T13:20:46.055Z,79.12
2023-03-07T13:23:29.427Z,77.71
2023-03-07T13:26:07.834Z,79.93
2023-03-07T13:28:52.484Z,80.61
2023-03-07T13:31:44.962Z,82.98
2023-03-07T13:34:52.254Z,83.91
2023-03-07T13:37:59.178Z,83.33
2023-03-07T13:40:52.813Z,84.86
2023-03-07T13:44:01.546Z,89.09
2023-03-07T13:46:58.729Z,90.57
2023-03-07T13:49:41.701Z,86.23
2023-03-07T13:52:39.171Z,87.43
2023-03-07T13:55:42.379Z,90.54
2023-03-07T13:58:23.051Z,90.09
2023-03-07T14:01:01.754Z,89.59
2023-03-07T14:03:34.170Z,91.82
2023-03-07T14:06:13.780Z,91.29
2023-03-07T14:08:42.831Z,89.34
2023-03-07T14:11:23.044Z,90.53
2023-03-07T14:14:23.791Z,91.20
2023-03-07T14:17:07.278Z,95.51
2023-03-07T14:19:50.010Z,97.02
2023-03-07T14:22:42.547Z,100.00
2023-03-07T14:25:18.776Z,95.87
2023-03-07T14:27:56.025Z,98.57
2023-03-07T14:30:32.533Z,99.52
2023-03-07T14:33:03.006Z,98.26
2023-03-07T14:35:47.578Z,98.50
2023-03-07T14:38:20.873Z,100.00
2023-03-07T14:41:36.237Z,100.00
2023-03-07T14:44:52.361Z,100.00
2023-03-07T14:47:36.998Z,97.54
2023-03-07T14:50:11.598Z,99.58
2023-03-07T14:52:40.930Z,99.33
2023-03-07T14:55:17.725Z,97.32
2023-03-07T14:57:49.518Z,100.00
2023-03-07T15:00:28.458Z,97.56
2023-03-07T15:03:04.295Z,95.84
2023-03-07T15:05:35.105Z,98.11
2023-03-07T15:08:04.134Z,98.85
2023-03-07T15:10:38.179Z,100.00
2023-03-07T15:13:09.391Z,100.00
2023-03-07T15:15:43.552Z,100.00
2023-03-07T15:19:04.479Z,100.00
2023-03-07T15:21:39.690Z,100.00
2023-03-07T15:24:20.009Z,100.00
2023-03-07T15:26:52.095Z,100.00
2023-03-07T15:29:23.444Z,100.00
2023-03-07T15:31:54.323Z,100.00
2023-03-07T15:34:27.058Z,100.00
2023-03-07T15:36:55.574Z,100.00
2023-03-07T15:39:34.642Z,100.00
2023-03-07T15:42:06.342Z,100.00
2023-03-07T15:44:36.773Z,100.00
2023-03-07T15:47:16.789Z,100.00
2023-03-07T15:49:51.774Z,100.00
2023-03-07T15:52:30.235Z,100.00
2023-03-07T15:55:00.972Z,100.00
2023-03-07T15:57:34.575Z,100.00
2023-03-07T16:00:05.762Z,100.00
2023-03-07T16:02:41.441Z,100.00
2023-03-07T16:05:33.820Z,100.00
2023-03-07T16:08:02.256Z,100.00
2023-03-07T16:10:32.922Z,100.00
2023-03-07T16:13:03.072Z,100.00
2023-03-07T16:15:32.536Z,100.00
2023-03-07T16:18:00.763Z,100.00
2023-03-07T16:20:30.435Z,100.00
2023-03-07T16:23:00.126Z,100.00
2023-03-07T16:25:32.060Z,100.00
2023-03-07T16:28:01.783Z,100.00
2023-03-07T16:30:30.416Z,100.00
2023-03-07T16:32:59.774Z,100.00
2023-03-07T16:35:32.706Z,100.00
2023-03-07T16:38:01.663Z,100.00
2023-03-07T16:40:30.655Z,100.00
2023-03-07T16:42:59.266Z,100.00
2023-03-07T16:45:29.470Z,100.00
2023-03-07T16:47:59.161Z,100.00
2023-03-07T16:50:31.915Z,100.00
2023-03-07T16:53:00.810Z,100.00
2023-03-07T16:55:29.355Z,100.00
2023-03-07T16:58:01.280Z,100.00
2023-03-07T17:00:31.683Z,100.00
2023-03-07T17:03:02.234Z,100.00
2023-03-07T17:05:31.950Z,100.00
2023-03-07T17:08:00.487Z,100.00
2023-03-07T17:10:29.459Z,100.00
2023-03-07T17:13:00.065Z,100.00
2023-03-07T17:15:31.098Z,100.00
2023-03-07T17:18:00.141Z,100.00
2023-03-07T17:20:29.148Z,100.00
2023-03-07T17:23:01.898Z,100.00
2023-03-07T17:25:30.358Z,100.00
2023-03-07T17:28:01.789Z,100.00
2023-03-07T17:30:31.706Z,100.00
2023-03-07T17:33:00.232Z,100.00
2023-03-07T17:35:30.321Z,100.00
2023-03-07T17:38:01.420Z,100.00
2023-03-07T17:40:30.347Z,100.00
2023-03-07T17:42:59.292Z,100.00
2023-03-07T17:45:29.657Z,100.00
2023-03-07T17:47:58.215Z,100.00
2023-03-07T17:50:27.915Z,100.00
2023-03-07T17:52:56.784Z,100.00
2023-03-07T17:55:26.466Z,100.00
2023-03-07T17:57:54.651Z,100.00
2023-03-07T18:00:23.589Z,100.00
2023-03-07T18:02:52.234Z,100.00
2023-03-07T18:05:20.606Z,100.00
2023-03-07T18:07:51.561Z,100.00
2023-03-07T18:10:19.928Z,100.00
2023-03-07T18:12:53.751Z,100.00
2023-03-07T18:15:22.769Z,100.00
2023-03-07T18:17:51.842Z,100.00
2023-03-07T18:20:21.834Z,100.00
2023-03-07T18:22:50.466Z,100.00
2023-03-07T18:25:19.609Z,100.00
2023-03-07T18:27:50.242Z,100.00
2023-03-07T18:30:18.948Z,100.00
2023-03-07T18:32:47.496Z,100.00
2023-03-07T18:35:16.901Z,100.00
2023-03-07T18:37:45.865Z,100.00
2023-03-07T18:40:14.960Z,100.00
2023-03-07T18:42:44.673Z,100.00
2023-03-07T18:45:16.567Z,100.00
2023-03-07T18:47:45.236Z,100.00
2023-03-07T18:50:13.793Z,100.00
2023-03-07T18:52:42.310Z,100.00
2023-03-07T18:55:12.317Z,100.00
2023-03-07T18:57:43.589Z,100.00
2023-03-07T19:00:15.241Z,100.00
2023-03-07T19:02:43.890Z,100.00
2023-03-07T19:05:12.099Z,100.00
2023-03-07T19:07:40.674Z,100.00
2023-03-07T19:10:14.581Z,100.00
2023-03-07T19:12:43.072Z,100.00
2023-03-07T19:15:12.291Z,100.00
2023-03-07T19:17:42.617Z,100.00
2023-03-07T19:20:12.007Z,100.00
2023-03-07T19:22:40.450Z,100.00
2023-03-07T19:25:09.777Z,100.00
2023-03-07T19:27:39.784Z,100.00
2023-03-07T19:30:11.282Z,100.00
2023-03-07T19:32:40.855Z,100.00
2023-03-07T19:35:11.056Z,100.00
2023-03-07T19:37:39.667Z,100.00
2023-03-07T19:40:10.220Z,100.00
2023-03-07T19:42:38.324Z,100.00
2023-03-07T19:45:08.127Z,100.00
2023-03-07T19:47:36.376Z,100.00
2023-03-07T19:50:11.492Z,100.00
2023-03-07T19:52:43.041Z,100.00
2023-03-07T19:55:11.665Z,100.00
2023-03-07T19:57:41.368Z,100.00
2023-03-07T20:00:10.912Z,100.00
2023-03-07T20:02:42.176Z,100.00
2023-03-07T20:05:12.261Z,100.00
2023-03-07T20:07:41.891Z,100.00
2023-03-07T20:10:11.984Z,100.00
2023-03-07T20:12:41.482Z,100.00
2023-03-07T20:15:12.434Z,100.00
2023-03-07T20:17:41.389Z,100.00
2023-03-07T20:20:11.483Z,100.00
2023-03-07T20:22:44.204Z,100.00
2023-03-07T20:25:12.390Z,100.00
2023-03-07T20:27:41.231Z,100.00
2023-03-07T20:30:10.921Z,100.00
2023-03-07T20:32:41.227Z,100.00
2023-03-07T20:35:11.406Z,100.00
2023-03-07T20:37:39.599Z,100.00
2023-03-07T20:40:10.979Z,100.00
2023-03-07T20:42:39.227Z,100.00
2023-03-07T20:45:08.795Z,100.00
2023-03-07T20:47:38.714Z,100.00
2023-03-07T20:50:13.157Z,100.00
2023-03-07T20:52:47.008Z,100.00
2023-03-07T20:55:21.765Z,100.00
2023-03-07T20:57:53.747Z,100.00
2023-03-07T21:00:27.997Z,100.00
2023-03-07T21:03:05.406Z,100.00
2023-03-07T21:05:37.858Z,100.00
2023-03-07T21:08:11.169Z,100.00
2023-03-07T21:10:43.587Z,100.00
2023-03-07T21:13:22.671Z,100.00
2023-03-07T21:15:56.724Z,100.00
2023-03-07T21:18:27.685Z,100.00
2023-03-07T21:21:01.818Z,100.00
2023-03-07T21:23:30.500Z,100.00
2023-03-07T21:26:06.118Z,100.00
2023-03-07T21:28:35.178Z,100.00
2023-03-07T21:31:09.059Z,100.00
2023-03-07T21:33:37.536Z,100.00
2023-03-07T21:36:14.101Z,100.00
2023-03-07T21:38:43.569Z,100.00
2023-03-07T21:41:19.658Z,100.00
2023-03-07T21:43:48.892Z,100.00
2023-03-07T21:46:22.330Z,100.00
2023-03-07T21:48:50.914Z,100.00
2023-03-07T21:51:19.667Z,100.00
2023-03-07T21:53:48.311Z,100.00
2023-03-07T21:56:23.940Z,100.00
2023-03-07T21:58:56.894Z,100.00
2023-03-07T22:01:34.154Z,100.00
2023-03-07T22:04:07.746Z,100.00
2023-03-07T22:06:42.665Z,100.00
2023-03-07T22:09:12.498Z,100.00
2023-03-07T22:11:41.851Z,99.34
2023-03-07T22:14:12.457Z,100.00
2023-03-07T22:16:43.297Z,97.87
2023-03-07T22:19:14.073Z,99.15
2023-03-07T22:21:42.422Z,99.89
2023-03-07T22:24:12.273Z,99.02
2023-03-07T22:26:43.664Z,100.00
2023-03-07T22:29:11.797Z,100.00
2023-03-07T22:31:40.193Z,98.50
2023-03-07T22:34:08.397Z,97.21
2023-03-07T22:36:36.804Z,98.06
2023-03-07T22:39:07.223Z,97.76
2023-03-07T22:41:35.857Z,98.17
2023-03-07T22:44:05.935Z,96.74
2023-03-07T22:46:34.213Z,97.26
2023-03-07T22:49:02.805Z,99.25
2023-03-07T22:51:32.759Z,96.85
2023-03-07T22:54:00.976Z,96.61
2023-03-07T22:56:31.622Z,95.23
2023-03-07T22:59:02.481Z,97.18
2023-03-07T23:01:35.059Z,97.60
2023-03-07T23:04:07.153Z,99.23
2023-03-07T23:06:36.548Z,96.48
2023-03-07T23:09:07.615Z,95.78
2023-03-07T23:11:36.844Z,95.78
2023-03-07T23:14:05.720Z,96.02
2023-03-07T23:16:39.264Z,94.57
2023-03-07T23:19:10.521Z,98.18
2023-03-07T23:21:39.701Z,96.67
2023-03-07T23:24:09.505Z,96.17
2023-03-07T23:26:39.023Z,97.50
2023-03-07T23:29:11.911Z,98.07
2023-03-07T23:31:43.084Z,99.46
2023-03-07T23:34:16.242Z,99.01
2023-03-07T23:36:45.283Z,98.47
2023-03-07T23:39:15.208Z,99.45
2023-03-07T23:41:43.348Z,99.66
2023-03-07T23:44:14.782Z,100.00
2023-03-07T23:46:44.578Z,100.00
2023-03-07T23:49:12.757Z,100.00
2023-03-07T23:51:41.151Z,100.00
2023-03-07T23:54:10.023Z,100.00
2023-03-07T23:56:38.440Z,100.00
2023-03-07T23:59:06.810Z,100.00
